createdAt,value
2018-12-14T00:02:56.082Z,85.32
2018-12-14T00:08:00.253Z,85.11
2018-12-14T00:13:02.553Z,85.13
2018-12-14T00:18:04.844Z,84.38
2018-12-14T00:23:07.977Z,84.62
2018-12-14T00:28:10.637Z,84.45
2018-12-14T00:33:12.813Z,84.73
2018-12-14T00:38:14.977Z,84.27
2018-12-14T00:43:17.129Z,84.75
2018-12-14T00:48:19.199Z,84.32
2018-12-14T00:53:21.233Z,84.44
2018-12-14T00:58:23.394Z,84.10
2018-12-14T01:03:25.576Z,84.15
2018-12-14T01:08:27.739Z,84.16
2018-12-14T01:13:30.145Z,83.86
2018-12-14T01:18:32.445Z,83.80
2018-12-14T01:23:34.637Z,83.88
2018-12-14T01:28:36.702Z,83.43
2018-12-14T01:33:38.774Z,83.96
2018-12-14T01:38:47.822Z,83.70
2018-12-14T01:43:49.993Z,83.37
2018-12-14T01:48:52.166Z,83.84
2018-12-14T01:53:54.237Z,83.92
2018-12-14T01:58:56.334Z,83.94
2018-12-14T02:03:58.764Z,83.80
2018-12-14T02:09:01.874Z,84.09
2018-12-14T02:14:07.620Z,84.03
2018-12-14T02:19:10.089Z,84.46
2018-12-14T02:24:12.561Z,84.06
2018-12-14T02:29:14.622Z,84.30
2018-12-14T02:34:17.096Z,84.49
2018-12-14T02:39:19.584Z,84.96
2018-12-14T02:44:21.646Z,84.87
2018-12-14T02:49:23.697Z,84.61
2018-12-14T02:54:25.761Z,84.62
2018-12-14T02:59:27.870Z,84.35
2018-12-14T03:04:29.907Z,84.30
2018-12-14T03:09:32.666Z,84.16
2018-12-14T03:14:34.933Z,84.07
2018-12-14T03:19:37.093Z,83.52
2018-12-14T03:24:39.306Z,83.72
2018-12-14T03:29:48.582Z,83.10
2018-12-14T03:34:50.614Z,83.41
2018-12-14T03:39:52.677Z,83.21
2018-12-14T03:44:54.830Z,82.52
2018-12-14T03:49:56.878Z,82.91
2018-12-14T03:54:58.933Z,82.74
2018-12-14T04:00:01.012Z,82.73
2018-12-14T04:05:03.263Z,82.25
2018-12-14T04:10:05.980Z,81.90
2018-12-14T04:15:08.298Z,81.79
2018-12-14T04:20:10.850Z,82.58
2018-12-14T04:25:13.171Z,82.37
2018-12-14T04:30:15.348Z,82.77
2018-12-14T04:35:17.729Z,82.57
2018-12-14T04:40:20.029Z,82.48
2018-12-14T04:45:22.281Z,82.67
2018-12-14T04:50:24.442Z,82.96
2018-12-14T04:55:26.662Z,83.34
2018-12-14T05:00:28.806Z,82.98
2018-12-14T05:05:31.231Z,83.17
2018-12-14T05:10:33.730Z,82.98
2018-12-14T05:15:36.015Z,82.78
2018-12-14T05:20:38.178Z,82.56
2018-12-14T05:25:40.313Z,82.47
2018-12-14T05:30:42.393Z,82.46
2018-12-14T05:35:44.544Z,82.42
2018-12-14T05:40:46.720Z,82.64
2018-12-14T05:45:48.989Z,83.04
2018-12-14T05:50:51.157Z,83.04
2018-12-14T05:55:53.423Z,82.91
2018-12-14T06:00:55.650Z,82.85
2018-12-14T06:05:57.821Z,83.49
2018-12-14T06:11:00.049Z,82.71
2018-12-14T06:16:02.217Z,82.69
2018-12-14T06:21:04.504Z,82.08
2018-12-14T06:26:06.708Z,82.85
2018-12-14T06:31:08.749Z,82.64
2018-12-14T06:36:10.823Z,83.06
2018-12-14T06:41:12.874Z,83.20
2018-12-14T06:46:15.055Z,83.28
2018-12-14T06:51:17.393Z,83.41
2018-12-14T06:56:19.469Z,83.26
2018-12-14T07:01:21.522Z,83.41
2018-12-14T07:06:23.697Z,83.22
2018-12-14T07:11:25.778Z,83.46
2018-12-14T07:16:27.937Z,83.41
2018-12-14T07:21:30.126Z,83.54
2018-12-14T07:26:32.773Z,84.07
2018-12-14T07:31:34.850Z,83.73
2018-12-14T07:36:37.146Z,83.83
2018-12-14T07:41:39.445Z,83.86
2018-12-14T07:46:41.490Z,83.48
2018-12-14T07:51:43.661Z,83.72
2018-12-14T07:56:45.850Z,83.11
2018-12-14T08:01:48.047Z,83.06
2018-12-14T08:06:50.145Z,83.53
2018-12-14T08:11:52.345Z,83.35
2018-12-14T08:16:54.385Z,83.55
2018-12-14T08:21:56.454Z,83.06
2018-12-14T08:26:58.578Z,82.57
2018-12-14T08:32:00.650Z,82.36
2018-12-14T08:37:02.937Z,82.37
2018-12-14T08:42:05.221Z,81.76
2018-12-14T08:47:07.377Z,81.23
2018-12-14T08:52:09.533Z,81.50
2018-12-14T08:57:11.750Z,80.83
2018-12-14T09:02:14.060Z,81.18
2018-12-14T09:07:16.402Z,80.15
2018-12-14T09:12:18.580Z,79.87
2018-12-14T09:17:20.865Z,79.46
2018-12-14T09:22:23.398Z,79.80
2018-12-14T09:27:26.492Z,79.24
2018-12-14T09:32:28.754Z,79.24
2018-12-14T09:37:30.934Z,78.55
2018-12-14T09:42:33.229Z,78.96
2018-12-14T09:47:35.394Z,78.80
2018-12-14T09:52:37.473Z,78.73
2018-12-14T09:57:39.681Z,78.54
2018-12-14T10:02:49.846Z,77.47
2018-12-14T10:07:52.129Z,77.81
2018-12-14T10:12:54.329Z,77.35
2018-12-14T10:17:56.431Z,76.46
2018-12-14T10:22:58.607Z,75.47
2018-12-14T10:28:00.801Z,76.03
2018-12-14T10:33:02.958Z,76.09
2018-12-14T10:38:05.013Z,75.26
2018-12-14T10:43:07.398Z,76.05
2018-12-14T10:48:09.553Z,75.30
2018-12-14T10:53:12.145Z,75.23
2018-12-14T10:58:14.569Z,75.77
2018-12-14T11:03:16.721Z,75.20
2018-12-14T11:08:18.781Z,74.79
2018-12-14T11:13:21.429Z,74.68
2018-12-14T11:18:43.294Z,74.66
2018-12-14T11:23:45.347Z,74.57
2018-12-14T11:28:47.518Z,74.46
2018-12-14T11:33:49.699Z,74.89
2018-12-14T11:38:51.769Z,73.58
2018-12-14T11:43:53.845Z,73.80
2018-12-14T11:48:56.017Z,73.78
2018-12-14T11:53:58.165Z,73.65
2018-12-14T11:59:00.586Z,73.59
2018-12-14T12:04:02.974Z,74.10
2018-12-14T12:09:08.278Z,74.25
2018-12-14T12:14:11.538Z,74.93
2018-12-14T12:19:13.606Z,76.12
2018-12-14T12:24:15.797Z,74.70
2018-12-14T12:29:18.005Z,75.13
2018-12-14T12:34:20.075Z,74.87
2018-12-14T12:39:22.210Z,74.42
2018-12-14T12:44:24.497Z,73.94
2018-12-14T12:49:26.791Z,74.87
2018-12-14T12:54:28.969Z,75.20
2018-12-14T12:59:31.470Z,75.04
2018-12-14T13:04:33.693Z,74.88
2018-12-14T13:09:35.857Z,75.83
2018-12-14T13:14:40.183Z,75.46
2018-12-14T13:19:42.246Z,75.53
2018-12-14T13:24:44.313Z,75.26
2018-12-14T13:29:46.385Z,74.90
2018-12-14T13:34:48.436Z,74.98
2018-12-14T13:39:50.670Z,75.58
2018-12-14T13:44:54.045Z,75.02
2018-12-14T13:49:56.250Z,75.04
2018-12-14T13:54:58.405Z,74.55
2018-12-14T14:00:00.625Z,75.21
2018-12-14T14:05:09.830Z,75.19
2018-12-14T14:10:12.329Z,75.78
2018-12-14T14:15:20.709Z,75.12
2018-12-14T14:20:18.585Z,75.16
2018-12-14T14:25:20.858Z,75.39
2018-12-14T14:30:25.246Z,75.80
2018-12-14T14:35:27.586Z,76.15
2018-12-14T14:40:29.737Z,76.62
2018-12-14T14:45:38.775Z,76.30
2018-12-14T14:50:40.881Z,76.67
2018-12-14T14:55:43.041Z,76.73
2018-12-14T15:00:45.103Z,77.04
2018-12-14T15:05:47.593Z,77.39
2018-12-14T15:10:49.884Z,77.38
2018-12-14T15:15:52.182Z,78.15
2018-12-14T15:20:54.572Z,78.52
2018-12-14T15:25:56.737Z,78.15
2018-12-14T15:30:59.023Z,78.60
2018-12-14T15:36:01.255Z,79.22
2018-12-14T15:41:03.534Z,78.94
2018-12-14T15:46:05.786Z,79.30
2018-12-14T15:51:07.878Z,78.71
2018-12-14T15:56:10.029Z,79.09
2018-12-14T16:01:12.285Z,79.11
2018-12-14T16:06:14.513Z,78.95
2018-12-14T16:11:16.606Z,79.21
2018-12-14T16:16:18.753Z,79.12
2018-12-14T16:21:21.042Z,79.02
2018-12-14T16:26:23.746Z,79.02
2018-12-14T16:31:26.542Z,79.25
2018-12-14T16:36:28.661Z,79.44
2018-12-14T16:41:30.740Z,79.16
2018-12-14T16:46:33.029Z,78.48
2018-12-14T16:51:35.565Z,78.72
2018-12-14T16:56:37.666Z,78.72
2018-12-14T17:01:47.661Z,78.95
2018-12-14T17:06:50.199Z,78.73
2018-12-14T17:11:52.492Z,79.08
2018-12-14T17:16:54.814Z,79.15
2018-12-14T17:21:57.051Z,78.97
2018-12-14T17:26:59.813Z,78.76
2018-12-14T17:32:02.528Z,78.77
2018-12-14T17:37:05.937Z,79.29
2018-12-14T17:42:10.159Z,79.55
2018-12-14T17:47:12.782Z,79.70
2018-12-14T17:52:15.217Z,79.68
2018-12-14T17:57:17.372Z,79.95
2018-12-14T18:02:19.550Z,80.03
2018-12-14T18:07:21.894Z,80.25
2018-12-14T18:12:25.005Z,80.12
2018-12-14T18:17:27.221Z,80.59
2018-12-14T18:22:29.645Z,80.66
2018-12-14T18:27:34.625Z,80.14
2018-12-14T18:32:36.785Z,80.34
2018-12-14T18:37:38.914Z,80.79
2018-12-14T18:42:41.882Z,80.27
2018-12-14T18:47:45.052Z,80.49
2018-12-14T18:52:47.129Z,81.05
2018-12-14T18:57:49.376Z,80.64
2018-12-14T19:02:51.450Z,80.79
2018-12-14T19:07:53.823Z,80.47
2018-12-14T19:12:55.810Z,80.63
2018-12-14T19:17:57.959Z,80.52
2018-12-14T19:23:00.146Z,80.65
2018-12-14T19:28:02.353Z,80.99
2018-12-14T19:33:11.486Z,80.83
2018-12-14T19:38:13.653Z,81.10
2018-12-14T19:43:15.749Z,81.34
2018-12-14T19:48:17.790Z,81.52
2018-12-14T19:53:19.854Z,81.29
2018-12-14T19:58:22.109Z,82.00
2018-12-14T20:03:25.379Z,81.55
2018-12-14T20:08:27.737Z,81.58
2018-12-14T20:13:30.246Z,81.24
2018-12-14T20:18:32.449Z,81.41
2018-12-14T20:23:35.602Z,81.22
2018-12-14T20:28:37.899Z,81.80
2018-12-14T20:33:40.055Z,82.07
2018-12-14T20:38:42.101Z,82.05
2018-12-14T20:43:44.302Z,81.97
2018-12-14T20:48:46.540Z,81.90
2018-12-14T20:53:49.995Z,81.76
2018-12-14T20:58:52.274Z,81.97
2018-12-14T21:03:54.509Z,81.95
2018-12-14T21:08:56.674Z,81.39
2018-12-14T21:13:59.173Z,81.53
2018-12-14T21:19:01.669Z,81.78
2018-12-14T21:24:04.270Z,81.76
2018-12-14T21:29:07.546Z,82.48
2018-12-14T21:34:09.981Z,82.08
2018-12-14T21:39:12.315Z,82.16
2018-12-14T21:44:14.577Z,82.17
2018-12-14T21:49:17.002Z,82.19
2018-12-14T21:54:19.313Z,82.69
2018-12-14T21:59:21.394Z,82.48
2018-12-14T22:04:23.581Z,82.44
2018-12-14T22:09:26.639Z,82.49
2018-12-14T22:14:28.757Z,82.66
2018-12-14T22:19:30.920Z,82.62
2018-12-14T22:24:33.377Z,82.42
2018-12-14T22:29:35.553Z,82.16
2018-12-14T22:34:37.713Z,82.06
2018-12-14T22:39:40.197Z,81.86
2018-12-14T22:44:42.235Z,82.29
2018-12-14T22:49:44.442Z,81.58
2018-12-14T22:54:46.618Z,81.76
2018-12-14T22:59:48.796Z,81.93
2018-12-14T23:04:50.890Z,81.46
2018-12-14T23:09:53.109Z,81.97
2018-12-14T23:14:55.256Z,81.79
2018-12-14T23:19:57.313Z,81.07
2018-12-14T23:24:59.593Z,81.18
2018-12-14T23:30:02.247Z,81.32
2018-12-14T23:35:05.314Z,81.20
2018-12-14T23:40:07.463Z,81.39
2018-12-14T23:45:09.866Z,81.12
2018-12-14T23:50:12.690Z,80.95
2018-12-14T23:55:14.733Z,80.28
